Time;durP1;ratioP1;P1;durP2;ratioP2;P2;SDS_P1;SDS_P2;PMS_P1;PMS_P2;Temp;Humidity;BMP_temperature;BMP_pressure;BME280_temperature;BME280_humidity;BME280_pressure;Samples;Min_cycle;Max_cycle;Signal;HPM_P1;HPM_P2
2022/06/22 00:00:25;;;;;;;8.82;3.33;;;14.60;99.90;;;-144.05;63.96;125687.94;6188905;23;20073;-89
2022/06/22 00:05:52;;;;;;;7.00;2.75;;;14.80;99.90;;;-144.05;60.46;125687.94;6189192;23;20488;-90
2022/06/22 00:08:37;;;;;;;5.13;3.10;;;15.00;99.90;;;-144.05;60.80;125687.94;6187616;23;20057;-86
2022/06/22 00:11:16;;;;;;;5.95;3.22;;;15.10;99.90;;;-144.05;62.57;125687.94;6190362;23;20020;-89
2022/06/22 00:13:55;;;;;;;5.88;3.03;;;15.10;99.90;;;-144.05;63.16;125687.94;6187655;23;20514;-90
2022/06/22 00:19:40;;;;;;;7.35;2.90;;;14.90;99.90;;;-144.05;64.46;125687.94;6188574;23;20071;-88
2022/06/22 00:22:26;;;;;;;6.60;2.72;;;14.80;99.90;;;-144.05;65.02;125687.94;6187038;23;20008;-89
2022/06/22 00:25:22;;;;;;;6.18;2.40;;;14.60;99.90;;;-144.05;65.19;125687.94;6186095;23;20036;-89
2022/06/22 00:27:55;;;;;;;4.88;2.55;;;14.00;99.90;;;-144.05;64.80;125687.94;6186979;23;20446;-89
2022/06/22 00:30:31;;;;;;;5.40;2.42;;;14.50;99.90;;;-144.05;65.19;125687.94;6187003;23;20016;-91
2022/06/22 00:33:22;;;;;;;;;;;14.50;99.90;;;-144.05;65.75;125687.94;6187358;23;20402;-88
2022/06/22 00:35:53;;;;;;;4.57;2.80;;;14.40;99.90;;;-144.05;66.26;125687.94;6186482;23;19908;-90
2022/06/22 00:38:32;;;;;;;7.00;2.80;;;14.30;99.90;;;-144.05;66.98;125687.94;6212369;23;20012;-87
2022/06/22 00:41:24;;;;;;;7.95;3.45;;;14.20;99.90;;;-144.05;67.62;125687.94;6187502;23;20005;-89
2022/06/22 00:44:11;;;;;;;6.53;3.00;;;14.10;99.90;;;-144.05;68.52;125687.94;6187616;23;20064;-90
2022/06/22 00:46:48;;;;;;;5.30;2.90;;;13.90;99.90;;;-144.05;68.89;125687.94;6187164;23;20016;-90
2022/06/22 00:49:22;;;;;;;7.10;2.90;;;13.80;99.90;;;-144.05;70.24;125687.94;6187402;23;20012;-91
2022/06/22 00:52:08;;;;;;;9.80;3.58;;;13.70;99.90;;;-144.05;69.33;125687.94;6186835;23;20012;-89
2022/06/22 00:54:39;;;;;;;6.47;3.00;;;13.70;99.90;;;-144.05;68.82;125687.94;6187104;23;19997;-87
2022/06/22 00:57:40;;;;;;;9.05;3.40;;;13.70;99.90;;;-144.05;68.79;125687.94;6187201;23;20004;-88
2022/06/22 01:00:22;;;;;;;6.75;3.20;;;13.70;99.90;;;-144.05;68.67;125687.94;6187832;23;20013;-89
2022/06/22 01:03:21;;;;;;;5.55;2.85;;;13.70;99.90;;;-144.05;68.72;125687.94;6188823;23;20355;-88
2022/06/22 01:06:04;;;;;;;4.22;2.75;;;13.60;99.90;;;-144.05;69.53;125687.94;6188118;23;20455;-89
2022/06/22 01:09:10;;;;;;;6.13;2.92;;;13.50;99.90;;;-144.05;70.29;125687.94;6215116;23;20009;-89
2022/06/22 01:12:16;;;;;;;9.07;3.58;;;13.30;99.90;;;-144.05;70.61;125687.94;6188318;23;20020;-87
2022/06/22 01:15:32;;;;;;;6.13;2.97;;;13.30;99.90;;;-144.05;70.70;125687.94;6187361;23;20059;-89
2022/06/22 01:18:00;;;;;;;5.30;3.70;;;13.20;99.90;;;-144.05;71.03;125687.94;6164136;23;20079;-88
2022/06/22 01:20:41;;;;;;;8.38;3.30;;;13.00;99.90;;;-144.05;71.70;125687.94;6185481;23;20001;-89
2022/06/22 01:23:30;;;;;;;6.82;3.92;;;12.90;99.90;;;-144.05;73.55;125687.94;6186253;23;20335;-89
2022/06/22 01:26:42;;;;;;;6.93;3.33;;;12.90;99.90;;;-144.05;73.40;125687.94;6185747;23;20009;-93
2022/06/22 01:29:27;;;;;;;6.43;2.63;;;12.70;99.90;;;-144.05;74.01;125687.94;6187176;23;20016;-91
2022/06/22 01:32:17;;;;;;;7.40;3.20;;;12.70;99.90;;;-144.05;73.91;125687.94;6187544;23;20005;-90
2022/06/22 01:34:48;;;;;;;6.32;3.33;;;12.70;99.90;;;-144.05;74.75;125687.94;6187010;23;20019;-88
2022/06/22 01:37:33;;;;;;;6.93;3.17;;;12.60;99.90;;;-144.05;74.88;125687.94;6186382;23;20340;-91
2022/06/22 01:40:20;;;;;;;4.35;2.63;;;12.60;99.90;;;-144.05;75.07;125687.94;6206201;23;20009;-88
2022/06/22 01:43:06;;;;;;;6.20;3.10;;;12.60;99.90;;;-144.05;75.37;125687.94;6209777;23;20016;-89
2022/06/22 01:46:13;;;;;;;5.35;3.25;;;12.60;99.90;;;-144.05;75.83;125687.94;6190824;23;20009;-90
2022/06/22 01:49:20;;;;;;;8.18;3.67;;;12.50;99.90;;;-144.05;76.36;125687.94;6189548;23;20084;-88
2022/06/22 01:51:58;;;;;;;7.97;3.38;;;12.50;99.90;;;-144.05;76.79;125687.94;6188951;23;20036;-91
2022/06/22 01:54:48;;;;;;;6.72;3.13;;;12.50;99.90;;;-144.05;76.95;125687.94;6190356;23;20367;-90
2022/06/22 01:57:56;;;;;;;4.63;3.40;;;12.40;99.90;;;-144.05;78.00;125687.94;6190154;23;20009;-92
2022/06/22 02:00:22;;;;;;;5.70;3.53;;;12.30;99.90;;;-144.05;77.68;125687.94;6192040;23;20558;-91
2022/06/22 02:03:12;;;;;;;5.97;3.17;;;12.30;99.90;;;-144.05;78.05;125687.94;6190402;23;20005;-90
2022/06/22 02:07:44;;;;;;;5.53;3.20;;;12.30;99.90;;;-144.05;78.04;125687.94;6191973;23;20105;-91
2022/06/22 02:08:57;;;;;;;5.78;3.28;;;12.30;99.90;;;-144.05;77.97;125687.94;6197472;23;20382;-93
2022/06/22 02:11:37;;;;;;;4.88;3.30;;;12.30;99.90;;;-144.05;78.31;125687.94;6193594;23;20096;-88
2022/06/22 02:14:21;;;;;;;8.65;3.47;;;12.20;99.90;;;-144.05;78.31;125687.94;6190295;23;20040;-86
2022/06/22 02:17:04;;;;;;;4.30;3.20;;;12.20;99.90;;;-144.05;78.40;125687.94;6189253;23;20004;-89
2022/06/22 02:19:31;;;;;;;6.47;3.28;;;12.10;99.90;;;-144.05;78.39;125687.94;6187969;23;20005;-88
2022/06/22 02:21:58;;;;;;;9.68;5.00;;;12.10;99.90;;;-144.05;78.46;125687.94;6187834;23;20009;-89
2022/06/22 02:24:44;;;;;;;10.25;5.15;;;12.00;99.90;;;-144.05;78.55;125687.94;6189552;23;20005;-88
2022/06/22 02:27:18;;;;;;;5.55;3.72;;;12.00;99.90;;;-144.05;78.68;125687.94;6187602;23;20446;-89
2022/06/22 02:29:59;;;;;;;11.55;4.03;;;12.00;99.90;;;-144.05;78.82;125687.94;6188441;23;20096;-86
2022/06/22 02:32:45;;;;;;;5.45;3.35;;;12.00;99.90;;;-144.05;78.77;125687.94;6187476;23;20015;-90
2022/06/22 02:35:15;;;;;;;4.97;3.47;;;12.00;99.90;;;-144.05;78.76;125687.94;6188846;23;20063;-90
2022/06/22 02:37:55;;;;;;;6.30;3.13;;;11.90;99.90;;;-144.05;78.82;125687.94;6187439;23;20232;-89
2022/06/22 02:40:28;;;;;;;5.45;3.70;;;11.80;99.90;;;-144.05;79.00;125687.94;6188104;23;20343;-91
2022/06/22 02:46:41;;;;;;;;;;;;;;;;;;;;;
2022/06/22 02:49:52;;;;;;;7.22;3.35;;;11.70;99.90;;;-144.05;78.43;125687.94;6192480;23;20134;-91
2022/06/22 02:53:16;;;;;;;;;;;;;;;;;;;;;
2022/06/22 02:56:55;;;;;;;8.45;3.50;;;11.60;99.90;;;-144.05;78.95;125687.94;6188052;23;20005;-92
2022/06/22 02:59:41;;;;;;;6.32;4.25;;;11.50;99.90;;;-144.05;79.27;125687.94;6214358;23;20141;-91
2022/06/22 03:02:18;;;;;;;;;;;;;;;;;;;;;
2022/06/22 03:04:47;;;;;;;5.05;3.20;;;11.40;99.90;;;-144.05;79.30;125687.94;6188987;23;19979;-90
2022/06/22 03:07:20;;;;;;;7.70;3.30;;;11.40;99.90;;;-144.05;79.29;125687.94;6188104;23;20020;-90
2022/06/22 03:09:50;;;;;;;7.40;3.53;;;11.30;99.90;;;-144.05;79.16;125687.94;6187312;23;20052;-90
2022/06/22 03:12:26;;;;;;;4.47;3.05;;;11.30;99.90;;;-144.05;79.14;125687.94;6187746;23;20009;-88
2022/06/22 03:15:04;;;;;;;;;;;11.60;99.90;;;-144.05;79.22;125687.94;6188080;23;20076;-89
2022/06/22 03:17:42;;;;;;;3.65;2.97;;;11.20;99.90;;;-144.05;79.18;125687.94;6187186;23;19904;-91
2022/06/22 03:20:27;;;;;;;6.40;3.20;;;11.50;99.90;;;-144.05;79.75;125687.94;6187742;23;20059;-89
2022/06/22 03:23:19;;;;;;;3.92;3.00;;;11.10;99.90;;;-144.05;79.65;125687.94;6194337;23;20008;-86
2022/06/22 03:26:19;;;;;;;5.60;3.78;;;11.10;99.90;;;-144.05;80.27;125687.94;6203207;23;20063;-87
2022/06/22 03:29:03;;;;;;;5.65;3.40;;;11.10;99.90;;;-144.05;80.34;125687.94;6205947;23;20028;-88
2022/06/22 03:31:48;;;;;;;7.75;3.95;;;11.10;99.90;;;-144.05;80.50;125687.94;6209938;23;20013;-84
2022/06/22 03:34:37;;;;;;;6.43;3.80;;;11.10;99.90;;;-144.05;80.47;125687.94;6211566;23;20012;-83
2022/06/22 03:37:24;;;;;;;10.57;4.20;;;11.20;99.90;;;-144.05;80.75;125687.94;6211563;22;20072;-84
2022/06/22 03:40:05;;;;;;;8.82;4.88;;;11.20;99.90;;;-144.05;81.42;125687.94;6203038;23;20079;-87
2022/06/22 03:42:46;;;;;;;6.90;4.85;;;11.30;99.90;;;-144.05;82.11;125687.94;6195817;23;20043;-87
2022/06/22 03:45:45;;;;;;;10.35;5.72;;;11.30;99.90;;;-144.05;82.71;125687.94;6209295;23;20019;-87
2022/06/22 03:48:42;;;;;;;9.30;5.07;;;11.40;99.90;;;-144.05;82.20;125687.94;6211760;22;20073;-83
2022/06/22 03:52:12;;;;;;;7.18;4.20;;;11.80;99.90;;;-144.05;81.74;125687.94;6190628;23;20020;-90
2022/06/22 03:54:56;;;;;;;8.40;4.63;;;11.50;99.90;;;-144.05;81.37;125687.94;6180657;23;20016;-87
2022/06/22 03:57:30;;;;;;;7.78;4.55;;;11.60;99.90;;;-144.05;81.41;125687.94;6189907;23;20005;-88
2022/06/22 04:00:06;;;;;;;7.93;4.10;;;11.60;99.90;;;-144.05;81.13;125687.94;6191453;23;20013;-88
2022/06/22 04:02:40;;;;;;;8.70;4.25;;;11.60;99.90;;;-144.05;81.37;125687.94;6188853;23;20020;-88
2022/06/22 04:05:20;;;;;;;7.32;4.05;;;11.60;99.90;;;-144.05;81.30;125687.94;6189768;23;20422;-89
2022/06/22 04:07:48;;;;;;;8.07;4.70;;;11.70;99.90;;;-144.05;81.13;125687.94;6190366;23;20087;-87
2022/06/22 04:11:27;;;;;;;6.93;4.22;;;11.70;99.90;;;-144.05;81.16;125687.94;6191355;23;20096;-88
2022/06/22 04:14:49;;;;;;;8.05;3.92;;;11.70;99.90;;;-144.05;80.86;125687.94;6195836;23;20023;-90
2022/06/22 04:18:53;;;;;;;6.13;3.70;;;11.80;99.90;;;-144.05;80.64;125687.94;6201901;23;20446;-89
2022/06/22 04:22:20;;;;;;;6.88;4.35;;;11.80;99.90;;;-144.05;80.94;125687.94;6234898;23;20008;-85
2022/06/22 04:25:20;;;;;;;7.95;3.90;;;11.60;99.90;;;-144.05;80.63;125687.94;6169009;23;20107;-91
2022/06/22 04:28:08;;;;;;;7.93;3.78;;;12.00;99.90;;;-144.05;80.73;125687.94;6191173;23;20005;-90
2022/06/22 04:30:50;;;;;;;8.02;4.40;;;12.00;99.90;;;-144.05;80.39;125687.94;6189858;23;20324;-87
2022/06/22 04:33:49;;;;;;;6.50;4.10;;;12.20;99.90;;;-144.05;80.37;125687.94;6190478;23;20009;-88
2022/06/22 04:36:43;;;;;;;;;;;;;;;;;;;;;
2022/06/22 04:39:58;;;;;;;7.00;3.97;;;12.70;99.90;;;-144.05;79.45;125687.94;6194686;23;20028;-88
2022/06/22 04:42:31;;;;;;;8.40;4.30;;;12.90;99.90;;;-144.05;78.87;125687.94;6192050;23;20008;-89
2022/06/22 04:45:03;;;;;;;9.15;5.05;;;13.20;99.90;;;-144.05;77.90;125687.94;6192357;23;20005;-87
2022/06/22 04:47:35;;;;;;;7.32;3.88;;;13.50;99.90;;;-144.05;76.77;125687.94;6192838;23;20029;-89
2022/06/22 04:50:22;;;;;;;8.27;4.20;;;13.80;99.90;;;-144.05;73.91;125687.94;6190843;23;20013;-90
2022/06/22 04:52:52;;;;;;;10.18;3.80;;;14.10;99.90;;;-144.05;71.80;125687.94;6190686;23;20009;-89
2022/06/22 04:55:29;;;;;;;7.53;3.60;;;14.40;99.90;;;-144.05;69.99;125687.94;6189050;23;20011;-89
2022/06/22 04:58:40;;;;;;;13.00;3.30;;;14.70;99.90;;;-144.05;64.89;125687.94;6192598;23;20312;-89
2022/06/22 05:01:15;;;;;;;7.10;3.53;;;15.00;99.90;;;-144.05;64.94;125687.94;6187849;23;20016;-90
2022/06/22 05:03:41;;;;;;;9.57;3.33;;;15.30;99.90;;;-144.05;62.67;125687.94;6189292;23;20009;-90
2022/06/22 05:06:34;;;;;;;;;;;;;;;;;;;;;
2022/06/22 05:09:26;;;;;;;6.78;3.75;;;15.70;99.90;;;-144.05;59.57;125687.94;6190212;23;20103;-86
2022/06/22 05:11:52;;;;;;;6.95;3.20;;;15.90;99.90;;;-144.05;58.42;125687.94;6187382;23;20295;-89
2022/06/22 05:14:32;;;;;;;6.53;3.70;;;15.80;99.90;;;-144.05;58.94;125687.94;6187381;23;20016;-89
2022/06/22 05:17:36;;;;;;;;;;;;;;;;;;;;;
2022/06/22 05:21:01;;;;;;;8.35;4.07;;;15.90;99.90;;;-144.05;57.29;125687.94;6188078;23;20057;-89
2022/06/22 05:23:35;;;;;;;7.45;3.72;;;16.00;99.90;;;-144.05;57.17;125687.94;6186786;23;20470;-90
2022/06/22 05:26:10;;;;;;;4.15;2.95;;;16.40;99.90;;;-144.05;56.81;125687.94;6187932;23;20009;-89
2022/06/22 05:29:00;;;;;;;5.63;3.63;;;16.80;99.90;;;-144.05;55.12;125687.94;6188584;23;20415;-89
2022/06/22 05:31:47;;;;;;;6.10;3.63;;;17.10;99.90;;;-144.05;54.24;125687.94;6189784;23;20013;-89
2022/06/22 05:34:38;;;;;;;11.48;4.50;;;17.40;99.90;;;-144.05;52.55;125687.94;6189638;23;20005;-89
2022/06/22 05:37:41;;;;;;;6.93;4.05;;;17.70;99.90;;;-144.05;51.74;125687.94;6174091;23;20012;-88
2022/06/22 05:40:10;;;;;;;7.15;3.03;;;18.00;99.90;;;-144.05;50.32;125687.94;6190464;23;20025;-88
2022/06/22 05:42:36;;;;;;;7.95;3.55;;;18.20;99.90;;;-144.05;48.78;125687.94;6192458;23;20084;-90
2022/06/22 05:45:38;;;;;;;8.02;2.80;;;18.30;99.90;;;-144.05;49.31;125687.94;6190141;23;20008;-88
2022/06/22 05:48:14;;;;;;;8.43;3.20;;;18.40;99.90;;;-144.05;48.59;125687.94;6195367;23;20009;-89
2022/06/22 05:51:32;;;;;;;6.65;3.05;;;18.70;99.90;;;-144.05;47.43;125687.94;6203138;23;20017;-87
2022/06/22 05:54:57;;;;;;;10.48;2.78;;;18.90;99.90;;;-144.05;46.74;125687.94;6201968;23;20020;-88
2022/06/22 05:57:49;;;;;;;8.48;3.10;;;19.10;99.90;;;-144.05;46.61;125687.94;6186909;23;20016;-91
2022/06/22 06:01:13;;;;;;;8.68;3.47;;;19.20;99.90;;;-144.05;46.22;125687.94;6191824;23;20125;-88
2022/06/22 06:05:05;;;;;;;9.43;2.55;;;19.40;99.90;;;-144.05;45.22;125687.94;6188082;23;20084;-90
2022/06/22 06:07:57;;;;;;;10.00;3.15;;;19.80;99.90;;;-144.05;43.62;125687.94;6188813;23;20012;-93
2022/06/22 06:11:04;;;;;;;6.32;2.38;;;20.20;99.90;;;-144.05;44.08;125687.94;6190351;23;20013;-91
2022/06/22 06:13:58;;;;;;;;;;;;;;;;;;;;;
2022/06/22 06:16:52;;;;;;;7.43;3.03;;;20.70;99.90;;;-144.05;42.46;125687.94;6194033;23;20033;-92
2022/06/22 06:19:25;;;;;;;3.90;2.83;;;20.80;99.90;;;-144.05;43.18;125687.94;6225485;23;20016;-88
2022/06/22 06:22:05;;;;;;;4.80;2.03;;;20.10;99.90;;;-144.05;43.27;125687.94;6198504;23;20009;-94
2022/06/22 06:29:33;;;;;;;;;;;;;;;;;;;;;
2022/06/22 06:32:55;;;;;;;6.75;2.55;;;20.30;99.90;;;-144.05;43.11;125687.94;6192938;23;20063;-90
2022/06/22 06:35:56;;;;;;;5.80;2.30;;;20.50;99.90;;;-144.05;42.15;125687.94;6192582;23;20016;-89
2022/06/22 06:38:47;;;;;;;7.20;2.92;;;21.00;99.90;;;-144.05;41.37;125687.94;6193374;23;20009;-89
2022/06/22 06:42:03;;;;;;;7.40;2.50;;;21.40;99.90;;;-144.05;40.39;125687.94;6193433;23;20063;-91
2022/06/22 06:49:34;;;;;;;5.05;3.10;;;21.70;99.60;;;-144.05;39.69;125687.94;6136048;23;20009;-89
2022/06/22 06:52:46;;;;;;;11.35;3.28;;;22.00;98.40;;;-144.05;39.15;125687.94;6195842;23;20009;-91
2022/06/22 06:56:01;;;;;;;5.70;3.10;;;22.30;96.90;;;-144.05;39.04;125687.94;6201681;23;20013;-87
2022/06/22 06:59:04;;;;;;;8.18;2.97;;;22.30;95.90;;;-144.05;38.56;125687.94;6177880;23;20069;-85
2022/06/22 07:01:45;;;;;;;8.57;3.10;;;22.20;93.90;;;-144.05;39.42;125687.94;6192075;23;20091;-89
2022/06/22 07:04:32;;;;;;;9.50;3.15;;;22.10;95.30;;;-144.05;39.34;125687.94;6191815;23;20005;-89
2022/06/22 07:07:47;;;;;;;7.28;3.45;;;22.20;95.30;;;-144.05;39.13;125687.94;6216316;23;20001;-90
2022/06/22 07:11:02;;;;;;;6.82;2.85;;;22.40;95.10;;;-144.05;39.22;125687.94;6191120;23;20064;-90
2022/06/22 07:14:07;;;;;;;15.05;2.92;;;22.90;96.20;;;-144.05;37.61;125687.94;6191923;23;20013;-90
2022/06/22 07:16:58;;;;;;;7.38;2.90;;;23.40;92.60;;;-144.05;37.58;125687.94;6192110;23;20466;-93
2022/06/22 07:20:26;;;;;;;6.13;2.63;;;23.40;91.40;;;-144.05;37.65;125687.94;6191042;23;20012;-89
2022/06/22 07:23:27;;;;;;;7.60;2.35;;;23.20;91.80;;;-144.05;37.51;125687.94;6180050;23;20005;-89
2022/06/22 07:26:10;;;;;;;7.55;2.88;;;23.90;91.10;;;-144.05;36.51;125687.94;6217390;23;20013;-90
2022/06/22 07:29:00;;;;;;;7.40;2.70;;;24.20;89.40;;;-144.05;36.27;125687.94;6196603;23;20449;-88
2022/06/22 07:32:19;;;;;;;7.93;2.63;;;24.30;86.10;;;-144.05;36.64;125687.94;6195346;23;20109;-91
2022/06/22 07:35:16;;;;;;;9.18;2.78;;;24.00;85.80;;;-144.05;36.08;125687.94;6180596;23;20468;-90
2022/06/22 07:38:18;;;;;;;6.47;2.30;;;24.10;85.20;;;-144.05;36.15;125687.94;6191875;23;20339;-89
2022/06/22 07:43:35;;;;;;;7.97;3.20;;;24.50;84.50;;;-144.05;34.65;125687.94;6192655;23;20020;-90
2022/06/22 07:46:18;;;;;;;4.72;2.28;;;25.00;80.90;;;-144.05;34.06;125687.94;6190989;23;20020;-90
2022/06/22 07:49:01;;;;;;;4.80;2.05;;;25.40;79.20;;;-144.05;33.88;125687.94;6190087;23;20312;-90
2022/06/22 07:51:37;;;;;;;8.20;2.55;;;25.40;77.70;;;-144.05;33.32;125687.94;6191509;23;20316;-87
2022/06/22 07:54:20;;;;;;;5.43;2.08;;;25.50;76.80;;;-144.05;33.20;125687.94;6193712;23;20009;-86
2022/06/22 07:57:28;;;;;;;6.60;1.90;;;25.50;75.30;;;-144.05;32.84;125687.94;6210673;23;20001;-87
2022/06/22 08:00:21;;;;;;;8.15;2.33;;;25.80;74.00;;;-144.05;33.32;125687.94;6178981;23;20024;-91
2022/06/22 08:04:03;;;;;;;7.50;1.88;;;25.30;72.90;;;-144.05;33.18;125687.94;6190967;23;20009;-91
2022/06/22 08:07:18;;;;;;;6.20;1.65;;;25.30;75.10;;;-144.05;32.73;125687.94;6081620;23;20006;-89
2022/06/22 08:10:03;;;;;;;4.45;1.80;;;25.80;71.90;;;-144.05;32.57;125687.94;6191503;23;20091;-90
2022/06/22 08:13:10;;;;;;;5.43;1.77;;;25.90;71.20;;;-144.05;32.32;125687.94;6191334;23;20009;-88
2022/06/22 08:16:05;;;;;;;8.10;2.30;;;25.90;70.60;;;-144.05;32.33;125687.94;6191294;23;20034;-89
2022/06/22 08:18:32;;;;;;;9.43;2.08;;;26.10;71.00;;;-144.05;31.68;125687.94;6191771;23;20435;-90
2022/06/22 08:21:04;;;;;;;6.18;2.05;;;26.50;69.60;;;-144.05;31.61;125687.94;6190826;23;20009;-90
2022/06/22 08:23:36;;;;;;;8.73;2.03;;;26.60;70.30;;;-144.05;31.83;125687.94;6190853;23;20005;-89
2022/06/22 08:26:40;;;;;;;6.30;2.08;;;26.80;69.10;;;-144.05;31.90;125687.94;6196917;23;20134;-89
2022/06/22 08:29:37;;;;;;;8.10;2.33;;;26.40;67.70;;;-144.05;31.17;125687.94;6194892;23;20394;-89
2022/06/22 08:32:19;;;;;;;6.35;1.83;;;26.90;67.30;;;-144.05;31.71;125687.94;6194054;23;20369;-90
2022/06/22 08:34:56;;;;;;;8.90;2.42;;;27.00;67.60;;;-144.05;31.51;125687.94;6191851;23;20044;-87
2022/06/22 08:37:38;;;;;;;4.18;1.85;;;27.40;67.80;;;-144.05;30.91;125687.94;6189353;23;20009;-87
2022/06/22 08:40:45;;;;;;;7.75;2.20;;;27.20;66.70;;;-144.05;30.99;125687.94;6216193;23;20024;-90
2022/06/22 08:43:45;;;;;;;6.75;1.85;;;27.60;65.80;;;-144.05;29.72;125687.94;6192534;23;20326;-86
2022/06/22 08:46:54;;;;;;;4.88;1.90;;;27.80;61.70;;;-144.05;30.36;125687.94;6217714;23;20009;-90
2022/06/22 08:50:49;;;;;;;9.80;2.20;;;27.70;63.10;;;-144.05;30.31;125687.94;6191843;23;20009;-89
2022/06/22 08:53:58;;;;;;;5.30;1.95;;;27.80;63.50;;;-144.05;30.02;125687.94;6126401;23;20033;-89
2022/06/22 08:57:03;;;;;;;4.90;1.70;;;27.90;61.50;;;-144.05;30.12;125687.94;6126636;23;20021;-87
2022/06/22 08:59:41;;;;;;;6.55;1.50;;;27.80;60.70;;;-144.05;29.61;125687.94;6189493;23;20000;-91
2022/06/22 09:02:29;;;;;;;5.03;1.60;;;27.90;60.20;;;-144.05;29.44;125687.94;6188678;23;20032;-88
2022/06/22 09:05:27;;;;;;;2.42;1.33;;;28.10;59.70;;;-144.05;29.11;125687.94;6190136;23;20307;-89
2022/06/22 09:08:39;;;;;;;6.65;1.75;;;28.20;58.60;;;-144.05;29.16;125687.94;6190020;23;20036;-89
2022/06/22 09:11:23;;;;;;;3.58;1.20;;;28.00;58.10;;;-144.05;29.15;125687.94;6190275;23;20087;-88
2022/06/22 09:14:33;;;;;;;5.85;1.80;;;28.30;59.00;;;-144.05;29.74;125687.94;6188643;23;20012;-88
2022/06/22 09:17:57;;;;;;;6.93;2.58;;;28.20;60.00;;;-144.05;29.32;125687.94;6127379;23;20028;-86
2022/06/22 09:21:08;;;;;;;4.03;1.80;;;28.10;58.80;;;-144.05;29.25;125687.94;6188583;23;20335;-89
2022/06/22 09:23:45;;;;;;;3.28;1.52;;;28.30;59.40;;;-144.05;29.08;125687.94;6187733;23;20009;-87
2022/06/22 09:26:43;;;;;;;5.72;1.55;;;28.10;57.30;;;-144.05;28.51;125687.94;6188215;23;20009;-89
2022/06/22 09:29:51;;;;;;;5.38;1.88;;;28.20;58.20;;;-144.05;29.38;125687.94;6190309;23;20001;-86
2022/06/22 09:33:02;;;;;;;3.58;1.60;;;28.10;58.40;;;-144.05;28.92;125687.94;6192492;23;20088;-88
2022/06/22 09:36:46;;;;;;;7.72;1.80;;;28.40;57.90;;;-144.05;29.46;125687.94;6193434;23;20012;-86
2022/06/22 09:39:47;;;;;;;6.43;1.58;;;28.00;57.20;;;-144.05;29.85;125687.94;6173354;23;20028;-85
2022/06/22 09:43:00;;;;;;;1.85;1.23;;;27.90;58.40;;;-144.05;28.29;125687.94;6191237;23;20422;-92
2022/06/22 09:46:01;;;;;;;6.82;1.70;;;28.10;56.20;;;-144.05;27.77;125687.94;6193500;23;20024;-90
2022/06/22 09:49:12;;;;;;;5.88;1.60;;;28.60;54.70;;;-144.05;28.08;125687.94;6191840;23;20015;-91
2022/06/22 09:52:17;;;;;;;7.47;1.30;;;28.60;54.50;;;-144.05;28.36;125687.94;6191685;23;20092;-88
2022/06/22 09:58:06;;;;;;;3.53;0.90;;;28.80;54.00;;;-144.05;27.77;125687.94;6191835;23;20036;-89
2022/06/22 10:01:33;;;;;;;3.70;1.40;;;29.30;55.40;;;-144.05;26.96;125687.94;6199638;23;20009;-83
2022/06/22 10:04:57;;;;;;;5.60;1.48;;;29.40;54.10;;;-144.05;27.62;125687.94;6202459;23;20017;-86
2022/06/22 10:07:59;;;;;;;4.53;1.50;;;29.40;54.90;;;-144.05;27.29;125687.94;6188459;23;20017;-88
2022/06/22 10:10:59;;;;;;;4.55;1.48;;;29.40;53.20;;;-144.05;27.36;125687.94;6187763;23;20005;-84
2022/06/22 10:14:39;;;;;;;4.60;1.40;;;29.60;53.90;;;-144.05;27.63;125687.94;6190103;23;20009;-89
2022/06/22 10:18:00;;;;;;;4.43;1.42;;;29.70;52.80;;;-144.05;26.62;125687.94;6193590;23;20005;-88
2022/06/22 10:20:47;;;;;;;4.40;1.35;;;30.00;52.00;;;-144.05;27.30;125687.94;6191685;23;20016;-88
2022/06/22 10:23:35;;;;;;;3.97;1.10;;;29.70;53.80;;;-144.05;27.07;125687.94;6190700;23;20009;-91
2022/06/22 10:26:31;;;;;;;7.53;1.40;;;29.70;52.10;;;-144.05;27.56;125687.94;6190359;23;20044;-86
2022/06/22 10:29:35;;;;;;;;;;;29.50;52.10;;;-144.05;27.11;125687.94;6213561;23;20107;-87
2022/06/22 10:32:57;;;;;;;4.15;1.30;;;29.40;52.00;;;-144.05;26.52;125687.94;6188187;23;19904;-90
2022/06/22 10:35:44;;;;;;;3.38;1.42;;;29.90;51.40;;;-144.05;26.74;125687.94;6188729;23;20090;-90
2022/06/22 10:38:51;;;;;;;2.80;1.00;;;29.90;51.40;;;-144.05;26.94;125687.94;6187362;23;20009;-91
2022/06/22 10:45:32;;;;;;;5.57;1.38;;;30.10;52.40;;;-144.05;26.49;125687.94;6188811;23;20032;-90
2022/06/22 10:48:33;;;;;;;6.93;1.40;;;29.90;51.30;;;-144.05;26.94;125687.94;6187938;23;20005;-87
2022/06/22 10:52:28;;;;;;;4.47;1.83;;;29.60;51.60;;;-144.05;26.66;125687.94;6191377;23;20005;-91
2022/06/22 10:56:15;;;;;;;3.15;1.20;;;29.70;50.50;;;-144.05;26.45;125687.94;6185218;23;20083;-89
2022/06/22 10:59:24;;;;;;;2.93;1.23;;;29.80;50.70;;;-144.05;26.76;125687.94;6192972;23;20112;-90
2022/06/22 11:02:47;;;;;;;3.33;1.30;;;29.80;51.50;;;-144.05;26.85;125687.94;6193293;23;20260;-90
2022/06/22 11:11:06;;;;;;;3.55;1.15;;;30.50;52.10;;;-144.05;26.83;125687.94;6116688;23;20491;-89
2022/06/22 11:18:42;;;;;;;5.85;1.67;;;30.00;50.40;;;-144.05;26.55;125687.94;6184375;23;20009;-88
2022/06/22 11:22:06;;;;;;;4.18;1.40;;;31.00;52.10;;;-144.05;26.31;125687.94;6193227;23;20016;-92
2022/06/22 11:37:48;;;;;;;;;;;;;;;;;;;;;
2022/06/22 11:45:58;;;;;;;3.97;1.10;;;30.90;49.10;;;-144.05;25.82;125687.94;6193710;23;20031;-89
2022/06/22 11:49:14;;;;;;;2.83;1.30;;;31.00;48.80;;;-144.05;25.45;125687.94;6192785;23;20013;-89
2022/06/22 11:56:39;;;;;;;;;;;;;;;;;;;;;
2022/06/22 12:00:39;;;;;;;;;;;;;;;;;;;;;
2022/06/22 12:04:38;;;;;;;;;;;;;;;;;;;;;
2022/06/22 12:07:59;;;;;;;5.07;1.40;;;29.80;48.80;;;-144.05;26.18;125687.94;6138165;23;20014;-88
2022/06/22 12:11:34;;;;;;;3.58;1.40;;;29.80;49.70;;;-144.05;26.12;125687.94;6145947;23;20018;-91
2022/06/22 12:15:14;;;;;;;4.60;1.42;;;30.70;49.50;;;-144.05;26.09;125687.94;6104627;23;20379;-87
2022/06/22 12:23:34;;;;;;;2.95;1.20;;;30.80;50.00;;;-144.05;26.07;125687.94;6168437;23;20017;-89
2022/06/22 12:26:52;;;;;;;7.53;1.58;;;31.00;48.60;;;-144.05;26.29;125687.94;6187685;23;20019;-89
2022/06/22 12:30:39;;;;;;;4.03;1.70;;;30.50;49.20;;;-144.05;26.22;125687.94;6188525;23;20368;-90
2022/06/22 12:34:46;;;;;;;;;;;;;;;;;;;;;
2022/06/22 12:41:52;;;;;;;4.82;1.27;;;30.60;51.20;;;-144.05;25.64;125687.94;6158224;23;20024;-88
2022/06/22 12:45:06;;;;;;;5.93;1.63;;;31.00;47.90;;;-144.05;25.99;125687.94;6131136;23;20016;-89
2022/06/22 12:47:53;;;;;;;4.38;1.20;;;31.20;48.40;;;-144.05;25.80;125687.94;6187781;23;20443;-90
2022/06/22 12:51:26;;;;;;;4.00;1.20;;;31.30;48.50;;;-144.05;26.20;125687.94;6185665;23;20390;-89
2022/06/22 12:54:30;;;;;;;2.33;1.10;;;31.00;48.50;;;-144.05;26.55;125687.94;6184844;23;20041;-87
2022/06/22 12:57:04;;;;;;;3.95;1.50;;;30.70;49.20;;;-144.05;26.41;125687.94;6182947;23;20088;-88
2022/06/22 12:59:59;;;;;;;4.88;1.35;;;30.80;49.80;;;-144.05;26.38;125687.94;6186333;23;20016;-89
2022/06/22 13:02:33;;;;;;;3.55;1.20;;;30.60;49.00;;;-144.05;26.34;125687.94;6184623;23;20437;-90
2022/06/22 13:05:10;;;;;;;4.47;1.63;;;30.50;49.10;;;-144.05;25.95;125687.94;6184991;23;20059;-91
2022/06/22 13:08:01;;;;;;;4.85;1.50;;;30.50;48.30;;;-144.05;26.79;125687.94;6184451;23;20005;-87
2022/06/22 13:10:44;;;;;;;3.90;1.38;;;30.30;50.30;;;-144.05;27.06;125687.94;6188075;23;20009;-89
2022/06/22 13:13:48;;;;;;;2.50;1.20;;;30.30;51.60;;;-144.05;26.61;125687.94;6188115;23;20009;-90
2022/06/22 13:17:11;;;;;;;3.35;1.10;;;30.80;50.10;;;-144.05;26.28;125687.94;6186530;23;20032;-88
2022/06/22 13:20:57;;;;;;;3.90;1.20;;;31.20;49.50;;;-144.05;25.86;125687.94;6185156;23;20009;-89
2022/06/22 13:23:48;;;;;;;1.98;1.10;;;31.00;48.40;;;-144.05;25.99;125687.94;6071901;23;20015;-89
2022/06/22 13:26:45;;;;;;;6.28;1.63;;;31.00;48.80;;;-144.05;26.33;125687.94;6180823;23;20020;-90
2022/06/22 13:30:17;;;;;;;2.58;1.10;;;30.70;48.60;;;-144.05;26.27;125687.94;6186810;23;20013;-90